Terminal Aerodrome Forecast
Issued by NWS

Home | Current Version | Previous Version | Text Only | Print | Product List | Glossary On
Versions: 1 2 3 4 5 6 7 8 9 10 11 12 13 14 15
000
FTUS42 KGSP 301305 AAA
TAFAND
TAF AMD
KAND 301305Z 3013/3112 17006KT P6SM SCT013 SCT250
      TEMPO 3013/3015 BKN013
     FM310300 16006KT P6SM SCT045
     FM310800 00000KT P6SM SCT045
     FM311000 00000KT 6SM BR BKN028=

USA.gov is the U.S. government's official web portal to all federal, state and local government web resources and services.